createdAt,value
2023-09-23T00:01:39.722Z,99952.31
2023-09-23T00:04:07.397Z,99961.56
2023-09-23T00:06:35.193Z,99962.34
2023-09-23T00:09:04.376Z,99963.19
2023-09-23T00:11:32.033Z,99964.69
2023-09-23T00:13:59.277Z,99969.75
2023-09-23T00:16:26.527Z,99967.03
2023-09-23T00:18:54.417Z,99965.53
2023-09-23T00:21:22.388Z,99978.41
2023-09-23T00:23:49.592Z,99983.88
2023-09-23T00:26:18.889Z,99986.13
2023-09-23T00:28:47.630Z,99989.09
2023-09-23T00:31:16.191Z,99992.47
2023-09-23T00:33:43.521Z,99991.38
2023-09-23T00:36:11.529Z,99990.31
2023-09-23T00:38:40.162Z,99996.31
2023-09-23T00:41:07.715Z,99997.09
2023-09-23T00:43:36.574Z,99993.53
2023-09-23T00:46:05.362Z,99999.59
2023-09-23T00:48:40.999Z,100005.59
2023-09-23T00:51:09.002Z,100010.25
2023-09-23T00:53:40.735Z,100006.72
2023-09-23T00:56:13.273Z,100007.09
2023-09-23T00:58:43.660Z,100011.06
2023-09-23T01:01:11.602Z,100015.16
2023-09-23T01:03:39.391Z,100018.53
2023-09-23T01:06:16.818Z,100019.31
2023-09-23T01:08:46.846Z,100024.28
2023-09-23T01:11:15.722Z,100004.31
2023-09-23T01:13:46.097Z,100024.91
2023-09-23T01:16:14.762Z,100025.69
2023-09-23T01:18:47.266Z,100020.88
2023-09-23T01:21:14.653Z,100021.50
2023-09-23T01:23:44.976Z,100025.88
2023-09-23T01:26:15.270Z,100027.84
2023-09-23T01:28:42.588Z,100026.53
2023-09-23T01:31:10.279Z,100024.56
2023-09-23T01:33:38.068Z,100027.03
2023-09-23T01:36:06.752Z,100029.94
2023-09-23T01:38:34.123Z,100041.53
2023-09-23T01:41:01.938Z,100046.41
2023-09-23T01:43:29.166Z,100050.25
2023-09-23T01:46:03.374Z,100046.94
2023-09-23T01:48:31.179Z,100050.63
2023-09-23T01:51:01.725Z,100049.66
2023-09-23T01:53:29.879Z,100045.75
2023-09-23T01:55:57.340Z,100052.53
2023-09-23T01:58:24.956Z,100059.25
2023-09-23T02:00:53.343Z,100061.56
2023-09-23T02:03:21.539Z,100056.31
2023-09-23T02:05:49.016Z,100069.81
2023-09-23T02:08:17.216Z,100076.72
2023-09-23T02:10:46.830Z,100078.88
2023-09-23T02:13:14.292Z,100078.38
2023-09-23T02:15:41.751Z,100075.94
2023-09-23T02:18:08.951Z,100081.13
2023-09-23T02:20:36.996Z,100077.38
2023-09-23T02:23:04.485Z,100092.13
2023-09-23T02:25:31.718Z,100089.75
2023-09-23T02:27:58.959Z,100087.19
2023-09-23T02:30:26.635Z,100098.69
2023-09-23T02:32:54.517Z,100098.00
2023-09-23T02:35:21.885Z,100101.22
2023-09-23T02:37:50.285Z,100095.44
2023-09-23T02:40:19.161Z,100094.16
2023-09-23T02:42:52.779Z,100081.25
2023-09-23T02:45:21.871Z,100100.59
2023-09-23T02:47:49.211Z,100101.34
2023-09-23T02:50:18.756Z,100094.56
2023-09-23T02:52:50.715Z,100099.38
2023-09-23T02:55:20.499Z,100103.75
2023-09-23T02:57:55.265Z,100100.47
2023-09-23T03:00:30.678Z,100110.56
2023-09-23T03:02:59.581Z,100120.31
2023-09-23T03:05:35.460Z,100114.50
2023-09-23T03:08:02.902Z,100119.25
2023-09-23T03:10:41.657Z,100123.63
2023-09-23T03:13:12.285Z,100125.78
2023-09-23T03:15:49.261Z,100129.09
2023-09-23T03:18:17.241Z,100133.88
2023-09-23T03:20:45.017Z,100139.94
2023-09-23T03:23:13.216Z,100132.97
2023-09-23T03:25:48.528Z,100139.19
2023-09-23T03:28:19.218Z,100150.47
2023-09-23T03:30:51.177Z,100153.38
2023-09-23T03:33:19.847Z,100163.41
2023-09-23T03:35:48.456Z,100166.75
2023-09-23T03:38:16.852Z,100164.91
2023-09-23T03:40:55.686Z,100163.47
2023-09-23T03:43:23.408Z,100175.38
2023-09-23T03:45:52.106Z,100175.25
2023-09-23T03:48:21.147Z,100177.91
2023-09-23T03:50:55.956Z,100177.09
2023-09-23T03:53:24.272Z,100183.88
2023-09-23T03:55:56.724Z,100186.22
2023-09-23T03:58:25.382Z,100194.75
2023-09-23T04:00:55.549Z,100200.97
2023-09-23T04:03:23.908Z,100199.91
2023-09-23T04:06:01.445Z,100205.22
2023-09-23T04:08:29.067Z,100215.34
2023-09-23T04:10:56.457Z,100217.09
2023-09-23T04:13:23.734Z,100224.75
2023-09-23T04:15:51.044Z,100230.31
2023-09-23T04:18:20.212Z,100229.47
2023-09-23T04:20:50.137Z,100232.94
2023-09-23T04:23:17.480Z,100236.88
2023-09-23T04:25:45.125Z,100245.66
2023-09-23T04:28:12.395Z,100243.41
2023-09-23T04:30:39.715Z,100250.56
2023-09-23T04:33:07.053Z,100249.03
2023-09-23T04:35:35.969Z,100261.69
2023-09-23T04:38:03.820Z,100255.44
2023-09-23T04:40:31.209Z,100260.22
2023-09-23T04:42:58.748Z,100250.59
2023-09-23T04:45:25.990Z,100267.44
2023-09-23T04:47:53.269Z,100263.19
2023-09-23T04:50:24.183Z,100266.16
2023-09-23T04:52:51.664Z,100277.06
2023-09-23T04:55:20.253Z,100285.03
2023-09-23T04:57:47.423Z,100273.06
2023-09-23T05:00:18.974Z,100282.59
2023-09-23T05:02:49.317Z,100294.72
2023-09-23T05:05:18.660Z,100291.06
2023-09-23T05:07:46.356Z,100301.34
2023-09-23T05:10:14.037Z,100300.69
2023-09-23T05:12:42.159Z,100302.81
2023-09-23T05:15:16.471Z,100309.66
2023-09-23T05:17:45.164Z,100316.41
2023-09-23T05:20:26.712Z,100305.56
2023-09-23T05:22:54.982Z,100312.88
2023-09-23T05:25:25.600Z,100328.28
2023-09-23T05:27:56.388Z,100322.47
2023-09-23T05:30:24.748Z,100324.16
2023-09-23T05:32:52.163Z,100324.09
2023-09-23T05:35:19.598Z,100324.03
2023-09-23T05:37:48.746Z,100340.38
2023-09-23T05:40:24.827Z,100336.75
2023-09-23T05:42:53.248Z,100351.03
2023-09-23T05:45:27.119Z,100350.78
2023-09-23T05:47:55.165Z,100351.69
2023-09-23T05:50:24.320Z,100363.06
2023-09-23T05:52:54.509Z,100370.59
2023-09-23T05:55:21.857Z,100371.50
2023-09-23T05:57:50.257Z,100375.16
2023-09-23T06:00:18.674Z,100366.97
2023-09-23T06:02:46.930Z,100372.34
2023-09-23T06:05:15.680Z,100364.47
2023-09-23T06:07:43.606Z,100369.34
2023-09-23T06:10:12.137Z,100378.00
2023-09-23T06:12:40.067Z,100381.00
2023-09-23T06:15:09.529Z,100380.38
2023-09-23T06:17:38.245Z,100384.28
2023-09-23T06:20:06.629Z,100385.81
2023-09-23T06:22:36.179Z,100391.72
2023-09-23T06:25:04.807Z,100400.31
2023-09-23T06:27:32.277Z,100395.22
2023-09-23T06:29:59.568Z,100404.19
2023-09-23T06:32:26.914Z,100413.63
2023-09-23T06:34:54.415Z,100404.34
2023-09-23T06:37:21.652Z,100404.16
2023-09-23T06:39:49.069Z,100405.47
2023-09-23T06:42:17.060Z,100410.22
2023-09-23T06:44:44.419Z,100411.09
2023-09-23T06:47:11.854Z,100413.63
2023-09-23T06:49:39.877Z,100419.56
2023-09-23T06:52:07.237Z,100424.69
2023-09-23T06:54:34.442Z,100419.09
2023-09-23T06:57:01.724Z,100426.84
2023-09-23T06:59:28.920Z,100438.88
2023-09-23T07:01:56.373Z,100440.25
2023-09-23T07:04:24.939Z,100450.16
2023-09-23T07:06:52.177Z,100451.28
2023-09-23T07:09:19.351Z,100454.06
2023-09-23T07:11:47.137Z,100461.34
2023-09-23T07:14:14.461Z,100457.88
2023-09-23T07:16:42.005Z,100462.94
2023-09-23T07:19:11.335Z,100467.03
2023-09-23T07:21:39.061Z,100474.00
2023-09-23T07:24:10.088Z,100471.44
2023-09-23T07:26:38.325Z,100481.13
2023-09-23T07:29:05.675Z,100479.84
2023-09-23T07:31:32.942Z,100488.91
2023-09-23T07:34:00.131Z,100488.22
2023-09-23T07:36:27.491Z,100483.31
2023-09-23T07:38:54.799Z,100504.13
2023-09-23T07:41:22.006Z,100493.25
2023-09-23T07:43:50.543Z,100506.06
2023-09-23T07:46:18.478Z,100508.22
2023-09-23T07:48:45.839Z,100508.59
2023-09-23T07:51:13.424Z,100531.28
2023-09-23T07:53:40.799Z,100518.00
2023-09-23T07:56:08.116Z,100540.88
2023-09-23T07:58:35.318Z,100533.25
2023-09-23T08:01:02.461Z,100542.72
2023-09-23T08:03:29.723Z,100554.38
2023-09-23T08:05:57.262Z,100562.06
2023-09-23T08:08:24.500Z,100576.38
2023-09-23T08:10:51.906Z,100567.97
2023-09-23T08:13:23.109Z,100563.06
2023-09-23T08:15:51.009Z,100565.78
2023-09-23T08:18:18.376Z,100585.75
2023-09-23T08:20:45.587Z,100587.81
2023-09-23T08:23:12.976Z,100595.56
2023-09-23T08:25:41.255Z,100591.25
2023-09-23T08:28:08.507Z,100593.75
2023-09-23T08:30:35.703Z,100620.31
2023-09-23T08:33:03.426Z,100615.78
2023-09-23T08:35:32.347Z,100603.84
2023-09-23T08:38:00.831Z,100625.63
2023-09-23T08:40:34.909Z,100619.31
2023-09-23T08:43:06.272Z,100627.88
2023-09-23T08:45:33.870Z,100634.94
2023-09-23T08:48:05.020Z,100615.22
2023-09-23T08:50:33.055Z,100620.72
2023-09-23T08:53:07.446Z,100625.84
2023-09-23T08:55:36.114Z,100623.56
2023-09-23T08:58:06.327Z,100619.34
2023-09-23T09:00:33.697Z,100617.31
2023-09-23T09:03:01.436Z,100617.47
2023-09-23T09:05:40.559Z,100617.34
2023-09-23T09:08:08.333Z,100615.03
2023-09-23T09:10:35.736Z,100623.50
2023-09-23T09:13:04.446Z,100620.94
2023-09-23T09:15:34.570Z,100628.53
2023-09-23T09:18:03.256Z,100622.50
2023-09-23T09:20:31.199Z,100642.16
2023-09-23T09:22:59.466Z,100635.44
2023-09-23T09:25:26.981Z,100646.34
2023-09-23T09:27:54.269Z,100656.38
2023-09-23T09:30:21.507Z,100672.09
2023-09-23T09:32:48.971Z,100671.25
2023-09-23T09:35:18.993Z,100670.59
2023-09-23T09:37:50.207Z,100681.47
2023-09-23T09:40:24.071Z,100690.63
2023-09-23T09:42:56.012Z,100683.31
2023-09-23T09:45:25.248Z,100692.72
2023-09-23T09:47:54.591Z,100698.53
2023-09-23T09:50:24.598Z,100699.31
2023-09-23T09:52:51.987Z,100699.00
2023-09-23T09:55:22.143Z,100702.56
2023-09-23T09:57:49.413Z,100711.78
2023-09-23T10:00:29.148Z,100711.09
2023-09-23T10:03:07.532Z,100712.66
2023-09-23T10:05:42.592Z,100704.53
2023-09-23T10:08:16.758Z,100713.59
2023-09-23T10:10:50.337Z,100710.13
2023-09-23T10:13:25.414Z,100705.31
2023-09-23T10:16:07.227Z,100708.66
2023-09-23T10:18:41.097Z,100713.94
2023-09-23T10:21:22.360Z,100723.56
2023-09-23T10:23:52.792Z,100723.38
2023-09-23T10:26:21.368Z,100726.69
2023-09-23T10:29:06.174Z,100720.63
2023-09-23T10:31:35.300Z,100729.28
2023-09-23T10:34:07.908Z,100723.19
2023-09-23T10:36:37.457Z,100733.41
2023-09-23T10:39:10.390Z,100722.63
2023-09-23T10:41:38.283Z,100735.19
2023-09-23T10:44:06.476Z,100729.69
2023-09-23T10:46:33.886Z,100729.56
2023-09-23T10:49:02.375Z,100735.16
2023-09-23T10:51:30.020Z,100739.06
2023-09-23T10:53:57.328Z,100743.84
2023-09-23T10:56:26.477Z,100737.94
2023-09-23T10:58:54.126Z,100741.63
2023-09-23T11:01:22.386Z,100731.09
2023-09-23T11:03:49.934Z,100732.19
2023-09-23T11:06:18.460Z,100717.38
2023-09-23T11:08:45.933Z,100729.06
2023-09-23T11:11:14.283Z,100717.56
2023-09-23T11:13:42.022Z,100725.63
2023-09-23T11:16:11.032Z,100735.47
2023-09-23T11:18:39.093Z,100732.47
2023-09-23T11:21:06.740Z,100734.13
2023-09-23T11:23:35.478Z,100747.22
2023-09-23T11:26:03.232Z,100742.75
2023-09-23T11:28:30.983Z,100751.97
2023-09-23T11:30:58.584Z,100761.09
2023-09-23T11:33:28.789Z,100753.56
2023-09-23T11:35:56.257Z,100759.31
2023-09-23T11:38:23.566Z,100755.81
2023-09-23T11:40:51.061Z,100758.78
2023-09-23T11:43:18.760Z,100754.22
2023-09-23T11:45:49.705Z,100766.53
2023-09-23T11:48:17.321Z,100767.47
2023-09-23T11:50:44.782Z,100776.31
2023-09-23T11:53:12.904Z,100771.50
2023-09-23T11:55:40.881Z,100773.75
2023-09-23T11:58:09.198Z,100779.38
2023-09-23T12:00:36.499Z,100773.69
2023-09-23T12:03:04.916Z,100767.97
2023-09-23T12:05:32.407Z,100768.72
2023-09-23T12:08:00.974Z,100757.13
2023-09-23T12:10:30.680Z,100755.56
2023-09-23T12:13:04.508Z,100763.81
2023-09-23T12:15:35.049Z,100765.69
2023-09-23T12:18:02.427Z,100772.94
2023-09-23T12:20:29.905Z,100767.00
2023-09-23T12:22:59.880Z,100770.47
2023-09-23T12:25:27.260Z,100761.47
2023-09-23T12:27:54.654Z,100772.66
2023-09-23T12:30:21.864Z,100770.19
2023-09-23T12:32:49.184Z,100764.31
2023-09-23T12:35:16.498Z,100776.63
2023-09-23T12:37:43.763Z,100770.22
2023-09-23T12:40:11.494Z,100782.59
2023-09-23T12:42:38.752Z,100785.09
2023-09-23T12:45:08.484Z,100781.78
2023-09-23T12:47:52.799Z,100772.63
2023-09-23T12:50:23.205Z,100781.66
2023-09-23T12:52:50.647Z,100791.72
2023-09-23T12:55:18.415Z,100781.91
2023-09-23T12:57:45.677Z,100787.13
2023-09-23T13:00:14.063Z,100779.63
2023-09-23T13:02:41.546Z,100780.22
2023-09-23T13:05:10.170Z,100789.41
2023-09-23T13:07:37.745Z,100784.06
2023-09-23T13:10:05.849Z,100776.03
2023-09-23T13:12:33.098Z,100789.53
2023-09-23T13:15:00.279Z,100787.00
2023-09-23T13:17:28.876Z,100790.44
2023-09-23T13:19:56.805Z,100798.00
2023-09-23T13:22:24.260Z,100798.31
2023-09-23T13:24:52.903Z,100805.25
2023-09-23T13:27:21.782Z,100807.66
2023-09-23T13:29:49.468Z,100815.34
2023-09-23T13:32:18.438Z,100818.72
2023-09-23T13:34:45.662Z,100822.09
2023-09-23T13:37:14.069Z,100825.88
2023-09-23T13:39:41.262Z,100816.81
2023-09-23T13:42:09.285Z,100815.06
2023-09-23T13:44:36.839Z,100831.78
2023-09-23T13:47:04.452Z,100839.06
2023-09-23T13:49:32.035Z,100842.94
2023-09-23T13:51:59.531Z,100840.22
2023-09-23T13:54:26.839Z,100846.25
2023-09-23T13:56:54.424Z,100844.56
2023-09-23T13:59:21.752Z,100847.00
2023-09-23T14:01:48.943Z,100850.50
2023-09-23T14:04:16.272Z,100841.63
2023-09-23T14:06:43.452Z,100851.00
2023-09-23T14:09:12.102Z,100855.28
2023-09-23T14:11:39.581Z,100853.72
2023-09-23T14:14:06.808Z,100859.06
2023-09-23T14:16:34.650Z,100851.78
2023-09-23T14:19:01.928Z,100857.69
2023-09-23T14:21:30.174Z,100850.13
2023-09-23T14:23:57.607Z,100861.84
2023-09-23T14:26:24.869Z,100855.75
2023-09-23T14:28:52.339Z,100863.50
2023-09-23T14:31:20.106Z,100863.53
2023-09-23T14:33:47.793Z,100862.25
2023-09-23T14:36:15.361Z,100862.25
2023-09-23T14:38:42.632Z,100871.44
2023-09-23T14:41:10.020Z,100886.59
2023-09-23T14:43:37.262Z,100880.09
2023-09-23T14:46:04.464Z,100886.00
2023-09-23T14:48:31.774Z,100891.34
2023-09-23T14:50:59.187Z,100894.44
2023-09-23T14:53:26.567Z,100895.81
2023-09-23T14:55:54.068Z,100901.66
2023-09-23T14:58:21.259Z,100916.00
2023-09-23T15:00:48.424Z,100911.31
2023-09-23T15:03:16.007Z,100907.09
2023-09-23T15:05:44.796Z,100908.06
2023-09-23T15:08:12.871Z,100913.09
2023-09-23T15:10:40.058Z,100917.56
2023-09-23T15:13:07.841Z,100922.50
2023-09-23T15:15:35.117Z,100928.38
2023-09-23T15:18:02.735Z,100925.94
2023-09-23T15:20:30.028Z,100934.31
2023-09-23T15:22:58.856Z,100933.44
2023-09-23T15:25:26.159Z,100939.91
2023-09-23T15:27:53.717Z,100943.91
2023-09-23T15:30:23.943Z,100944.50
2023-09-23T15:32:51.501Z,100949.78
2023-09-23T15:35:19.630Z,100947.97
2023-09-23T15:37:47.006Z,100951.28
2023-09-23T15:40:17.485Z,100951.53
2023-09-23T15:42:45.203Z,100958.03
2023-09-23T15:45:13.194Z,100964.09
2023-09-23T15:47:41.043Z,100965.41
2023-09-23T15:50:10.118Z,100961.38
2023-09-23T15:52:38.627Z,100981.25
2023-09-23T15:55:06.468Z,100978.81
2023-09-23T15:57:33.976Z,100988.69
2023-09-23T16:00:01.365Z,100997.31
2023-09-23T16:02:28.696Z,100994.66
2023-09-23T16:04:56.018Z,100994.88
2023-09-23T16:07:23.527Z,101004.81
2023-09-23T16:09:50.720Z,101012.41
2023-09-23T16:12:17.908Z,101008.94
2023-09-23T16:14:45.146Z,101015.63
2023-09-23T16:17:12.582Z,101015.75
2023-09-23T16:19:40.154Z,101013.88
2023-09-23T16:22:07.380Z,101018.94
2023-09-23T16:24:37.161Z,101024.72
2023-09-23T16:27:04.472Z,101030.69
2023-09-23T16:29:31.744Z,101036.44
2023-09-23T16:31:58.981Z,101037.94
2023-09-23T16:34:26.139Z,101043.97
2023-09-23T16:36:53.328Z,101041.50
2023-09-23T16:39:20.497Z,101047.38
2023-09-23T16:41:47.749Z,101042.06
2023-09-23T16:44:18.054Z,101047.22
2023-09-23T16:46:47.281Z,101055.84
2023-09-23T16:49:14.779Z,101052.94
2023-09-23T16:51:42.355Z,101060.56
2023-09-23T16:54:10.462Z,101063.88
2023-09-23T16:56:38.115Z,101068.13
2023-09-23T16:59:05.849Z,101073.66
2023-09-23T17:01:33.031Z,101077.75
2023-09-23T17:04:00.268Z,101077.25
2023-09-23T17:06:28.380Z,101078.47
2023-09-23T17:08:55.571Z,101085.03
2023-09-23T17:11:22.872Z,101086.88
2023-09-23T17:13:50.072Z,101086.91
2023-09-23T17:16:17.333Z,101096.88
2023-09-23T17:18:45.410Z,101093.59
2023-09-23T17:21:12.832Z,101094.50
2023-09-23T17:23:40.135Z,101101.84
2023-09-23T17:26:10.371Z,101102.78
2023-09-23T17:28:37.631Z,101103.81
2023-09-23T17:31:10.233Z,101108.91
2023-09-23T17:33:38.244Z,101109.88
2023-09-23T17:36:05.982Z,101108.09
2023-09-23T17:38:33.730Z,101109.66
2023-09-23T17:41:01.595Z,101115.03
2023-09-23T17:43:28.823Z,101114.72
2023-09-23T17:45:56.010Z,101126.19
2023-09-23T17:48:23.286Z,101135.56
2023-09-23T17:50:50.614Z,101139.16
2023-09-23T17:53:18.786Z,101142.09
2023-09-23T17:55:46.503Z,101146.00
2023-09-23T17:58:14.995Z,101145.13
2023-09-23T18:00:42.709Z,101143.47
2023-09-23T18:03:11.117Z,101152.69
2023-09-23T18:05:38.666Z,101150.84
2023-09-23T18:08:05.935Z,101153.41
2023-09-23T18:10:33.238Z,101159.25
2023-09-23T18:13:00.496Z,101163.47
2023-09-23T18:15:27.667Z,101163.22
2023-09-23T18:17:55.135Z,101169.13
2023-09-23T18:20:25.661Z,101166.78
2023-09-23T18:22:54.692Z,101169.03
2023-09-23T18:25:21.923Z,101171.78
2023-09-23T18:27:49.092Z,101177.31
2023-09-23T18:30:16.415Z,101178.03
2023-09-23T18:32:45.635Z,101182.16
2023-09-23T18:35:13.258Z,101188.66
2023-09-23T18:37:40.554Z,101198.19
2023-09-23T18:40:09.594Z,101200.25
2023-09-23T18:42:36.777Z,101214.66
2023-09-23T18:45:04.489Z,101215.59
2023-09-23T18:47:31.868Z,101223.31
2023-09-23T18:50:01.921Z,101221.38
2023-09-23T18:52:29.116Z,101217.22
2023-09-23T18:54:56.308Z,101225.84
2023-09-23T18:57:24.528Z,101223.97
2023-09-23T18:59:51.763Z,101228.56
2023-09-23T19:02:21.786Z,101232.94
2023-09-23T19:04:49.026Z,101237.09
2023-09-23T19:07:16.229Z,101239.16
2023-09-23T19:09:43.434Z,101251.88
2023-09-23T19:12:10.713Z,101248.38
2023-09-23T19:14:38.814Z,101251.91
2023-09-23T19:17:05.965Z,101253.13
2023-09-23T19:19:33.158Z,101253.34
2023-09-23T19:22:00.432Z,101255.56
2023-09-23T19:24:27.610Z,101262.53
2023-09-23T19:26:57.506Z,101268.66
2023-09-23T19:29:25.841Z,101263.69
2023-09-23T19:31:53.343Z,101271.88
2023-09-23T19:34:20.612Z,101271.47
2023-09-23T19:36:47.878Z,101277.63
2023-09-23T19:39:15.460Z,101278.25
2023-09-23T19:41:42.803Z,101278.59
2023-09-23T19:44:10.728Z,101277.09
2023-09-23T19:46:38.289Z,101286.31
2023-09-23T19:49:05.518Z,101282.69
2023-09-23T19:51:33.220Z,101286.97
2023-09-23T19:54:00.924Z,101292.59
2023-09-23T19:56:28.253Z,101296.56
2023-09-23T19:58:55.458Z,101298.81
2023-09-23T20:01:23.972Z,101304.03
2023-09-23T20:03:51.329Z,101305.03
2023-09-23T20:06:19.729Z,101307.75
2023-09-23T20:08:47.295Z,101314.22
2023-09-23T20:11:15.258Z,101315.00
2023-09-23T20:13:42.508Z,101323.13
2023-09-23T20:16:09.836Z,101314.97
2023-09-23T20:18:37.098Z,101326.38
2023-09-23T20:21:04.552Z,101328.69
2023-09-23T20:23:32.833Z,101340.00
2023-09-23T20:26:01.000Z,101332.53
2023-09-23T20:28:28.397Z,101341.53
2023-09-23T20:31:00.462Z,101337.97
2023-09-23T20:33:29.113Z,101351.91
2023-09-23T20:35:56.759Z,101351.00
2023-09-23T20:38:24.863Z,101348.75
2023-09-23T20:41:07.271Z,101346.22
2023-09-23T20:43:38.768Z,101349.31
2023-09-23T20:46:12.788Z,101355.19
2023-09-23T20:48:40.129Z,101359.66
2023-09-23T20:51:10.134Z,101362.91
2023-09-23T20:53:37.648Z,101368.53
2023-09-23T20:56:09.524Z,101365.06
2023-09-23T20:58:37.187Z,101379.00
2023-09-23T21:01:04.379Z,101384.63
2023-09-23T21:03:31.805Z,101383.22
2023-09-23T21:05:59.106Z,101389.47
2023-09-23T21:08:26.844Z,101392.56
2023-09-23T21:10:54.178Z,101401.34
2023-09-23T21:13:21.630Z,101398.31
2023-09-23T21:15:59.721Z,101396.72
2023-09-23T21:18:27.135Z,101405.41
2023-09-23T21:20:54.429Z,101405.81
2023-09-23T21:23:21.862Z,101417.44
2023-09-23T21:25:55.542Z,101407.13
2023-09-23T21:28:22.780Z,101410.50
2023-09-23T21:30:50.121Z,101414.91
2023-09-23T21:33:17.388Z,101422.84
2023-09-23T21:35:45.562Z,101428.84
2023-09-23T21:38:12.980Z,101432.38
2023-09-23T21:40:41.962Z,101426.75
2023-09-23T21:43:09.509Z,101430.53
2023-09-23T21:45:39.692Z,101426.91
2023-09-23T21:48:10.293Z,101441.31
2023-09-23T21:50:37.901Z,101434.06
2023-09-23T21:53:06.244Z,101441.47
2023-09-23T21:55:33.525Z,101431.97
2023-09-23T21:58:00.834Z,101437.47
2023-09-23T22:00:28.703Z,101451.44
2023-09-23T22:02:58.763Z,101442.19
2023-09-23T22:05:27.859Z,101448.03
2023-09-23T22:07:58.868Z,101442.75
2023-09-23T22:10:28.426Z,101441.75
2023-09-23T22:12:57.173Z,101446.69
2023-09-23T22:15:27.170Z,101447.44
2023-09-23T22:17:55.629Z,101447.78
2023-09-23T22:20:25.566Z,101453.94
2023-09-23T22:22:54.729Z,101453.50
2023-09-23T22:25:23.145Z,101446.19
2023-09-23T22:27:55.165Z,101452.88
2023-09-23T22:30:27.004Z,101462.53
2023-09-23T22:33:00.220Z,101457.16
2023-09-23T22:35:30.684Z,101462.22
2023-09-23T22:38:02.598Z,101470.03
2023-09-23T22:40:31.736Z,101474.25
2023-09-23T22:42:59.704Z,101471.63
2023-09-23T22:47:59.706Z,101476.22
2023-09-23T22:50:28.169Z,101473.78
2023-09-23T22:52:57.188Z,101470.50
2023-09-23T22:55:25.522Z,101480.94
2023-09-23T22:57:53.705Z,101488.06
2023-09-23T23:00:22.841Z,101494.09
2023-09-23T23:02:50.278Z,101484.00
2023-09-23T23:05:18.423Z,101487.41
2023-09-23T23:07:51.053Z,101497.00
2023-09-23T23:10:18.916Z,101495.94
2023-09-23T23:12:48.435Z,101499.53
2023-09-23T23:15:18.814Z,101499.00
2023-09-23T23:17:48.630Z,101501.16
2023-09-23T23:20:24.141Z,101500.97
2023-09-23T23:22:56.521Z,101503.00
2023-09-23T23:25:25.154Z,101504.13
2023-09-23T23:27:53.688Z,101502.41
2023-09-23T23:30:21.765Z,101510.13
2023-09-23T23:32:49.737Z,101512.47
2023-09-23T23:35:23.060Z,101521.56
2023-09-23T23:37:51.873Z,101533.50
2023-09-23T23:40:22.778Z,101534.06
2023-09-23T23:42:53.232Z,101531.19
2023-09-23T23:45:22.251Z,101536.59
2023-09-23T23:47:54.664Z,101545.69
2023-09-23T23:50:23.854Z,101535.31
2023-09-23T23:52:51.366Z,101545.31
2023-09-23T23:55:19.430Z,101547.50
2023-09-23T23:57:46.776Z,101549.34
